Time;durP1;ratioP1;P1;durP2;ratioP2;P2;SDS_P1;SDS_P2;PMS_P1;PMS_P2;Temp;Humidity;BMP_temperature;BMP_pressure;BME280_temperature;BME280_humidity;BME280_pressure;Samples;Min_cycle;Max_cycle;Signal;HPM_P1;HPM_P2
2021/07/11 00:00:34;;;;;;;5.23;4.80;;;;;;;19.01;100.00;96227.03;5013041;28;20223;-80
2021/07/11 00:03:02;;;;;;;6.97;4.53;;;;;;;19.00;100.00;96216.59;5012864;28;20680;-80
2021/07/11 00:05:29;;;;;;;5.77;4.33;;;;;;;19.03;100.00;96202.88;5013036;28;20226;-80
2021/07/11 00:07:57;;;;;;;7.00;4.33;;;;;;;19.14;100.00;96215.50;5012793;28;20203;-80
2021/07/11 00:10:25;;;;;;;8.33;4.77;;;;;;;19.23;100.00;96208.91;5012107;28;20246;-80
2021/07/11 00:12:52;;;;;;;4.97;4.57;;;;;;;19.04;100.00;96209.00;5012348;28;20273;-80
2021/07/11 00:15:23;;;;;;;6.80;5.07;;;;;;;19.06;100.00;96196.31;5012780;28;20291;-79
2021/07/11 00:17:51;;;;;;;4.67;4.27;;;;;;;19.12;100.00;96206.06;5012930;28;20199;-80
2021/07/11 00:20:19;;;;;;;5.83;4.60;;;;;;;19.05;100.00;96187.50;5012453;28;20651;-80
2021/07/11 00:22:46;;;;;;;6.23;4.80;;;;;;;18.98;100.00;96181.38;5012643;28;20202;-80
2021/07/11 00:25:15;;;;;;;5.30;4.30;;;;;;;18.97;100.00;96177.06;5012509;28;20250;-80
2021/07/11 00:27:43;;;;;;;5.60;4.97;;;;;;;18.80;100.00;96157.28;5012762;28;20203;-80
2021/07/11 00:30:12;;;;;;;5.30;4.80;;;;;;;18.62;100.00;96153.47;5012224;28;20646;-80
2021/07/11 00:32:41;;;;;;;5.20;4.73;;;;;;;18.71;100.00;96162.03;5012724;28;20196;-81
2021/07/11 00:35:09;;;;;;;4.97;4.57;;;;;;;18.71;100.00;96152.22;5012365;28;20257;-81
2021/07/11 00:37:37;;;;;;;5.73;5.17;;;;;;;18.79;100.00;96156.47;5012385;28;20234;-80
2021/07/11 00:40:06;;;;;;;5.03;4.63;;;;;;;18.75;100.00;96147.28;5011972;28;20716;-81
2021/07/11 00:42:34;;;;;;;5.37;4.77;;;;;;;18.60;100.00;96131.56;5012405;28;20668;-81
2021/07/11 00:45:01;;;;;;;6.63;5.30;;;;;;;18.51;100.00;96125.66;5012100;28;20300;-80
2021/07/11 00:47:29;;;;;;;5.23;4.83;;;;;;;18.46;100.00;96120.19;5012294;28;20234;-80
2021/07/11 00:49:58;;;;;;;5.60;5.07;;;;;;;18.24;100.00;96108.19;5012079;28;20282;-80
2021/07/11 00:52:25;;;;;;;6.87;5.40;;;;;;;18.45;100.00;96097.22;5012427;28;20639;-80
2021/07/11 00:54:52;;;;;;;4.80;4.33;;;;;;;18.18;100.00;96083.22;5012094;28;20707;-80
2021/07/11 00:57:19;;;;;;;5.17;4.77;;;;;;;18.31;100.00;96098.31;5012230;28;20231;-80
2021/07/11 00:59:47;;;;;;;5.00;4.50;;;;;;;18.35;100.00;96122.66;5011658;28;20227;-80
2021/07/11 01:02:19;;;;;;;5.27;4.53;;;;;;;18.29;100.00;96105.72;5012104;28;20257;-79
2021/07/11 01:04:53;;;;;;;6.63;6.07;;;;;;;18.26;100.00;96092.84;5012102;28;20196;-80
2021/07/11 01:07:28;;;;;;;4.80;4.50;;;;;;;18.25;100.00;96100.00;5012348;28;20270;-79
2021/07/11 01:09:59;;;;;;;5.57;5.07;;;;;;;18.17;100.00;96065.63;5011743;28;20190;-80
2021/07/11 01:12:29;;;;;;;5.57;5.13;;;;;;;18.14;100.00;96051.94;5011618;28;20239;-80
2021/07/11 01:15:00;;;;;;;5.40;4.93;;;;;;;18.32;100.00;96062.69;5012480;28;20219;-80
2021/07/11 01:17:29;;;;;;;6.13;5.13;;;;;;;18.21;100.00;96061.53;5011850;28;20194;-80
2021/07/11 01:20:04;;;;;;;5.80;5.27;;;;;;;18.30;100.00;96065.59;5012166;28;20223;-80
2021/07/11 01:22:44;;;;;;;6.00;4.83;;;;;;;18.23;100.00;96074.63;5015971;28;20191;-80
2021/07/11 01:25:20;;;;;;;6.13;5.00;;;;;;;18.11;100.00;96055.03;5016152;28;20226;-80
2021/07/11 01:27:48;;;;;;;5.07;4.67;;;;;;;18.09;100.00;96057.91;5015950;28;20185;-80
2021/07/11 01:30:16;;;;;;;6.03;5.43;;;;;;;17.90;100.00;96045.50;5015798;28;20678;-81
2021/07/11 01:32:44;;;;;;;4.90;4.60;;;;;;;17.75;100.00;96043.88;5015878;28;20203;-80
2021/07/11 01:35:13;;;;;;;5.30;4.87;;;;;;;17.61;100.00;96060.06;5016023;28;20199;-81
2021/07/11 01:37:40;;;;;;;5.43;4.83;;;;;;;17.08;100.00;96031.72;5016107;28;20199;-80
2021/07/11 01:40:09;;;;;;;5.50;5.00;;;;;;;17.07;100.00;96012.31;5015786;28;20664;-80
2021/07/11 01:42:40;;;;;;;5.40;4.90;;;;;;;17.42;100.00;96029.84;5015491;28;20744;-79
2021/07/11 01:45:08;;;;;;;5.47;5.00;;;;;;;17.85;100.00;96088.66;5015539;28;20227;-80
2021/07/11 01:47:36;;;;;;;5.70;5.20;;;;;;;18.23;100.00;96133.97;5015565;28;20235;-80
2021/07/11 01:50:06;;;;;;;5.73;5.13;;;;;;;18.47;100.00;96160.91;5015628;28;20299;-80
2021/07/11 01:52:35;;;;;;;5.67;5.07;;;;;;;18.55;100.00;96168.63;5015284;28;20286;-80
2021/07/11 01:55:03;;;;;;;5.07;4.63;;;;;;;18.59;100.00;96180.50;5015531;28;20265;-80
2021/07/11 01:57:31;;;;;;;7.50;4.70;;;;;;;18.76;100.00;96191.53;5015422;28;20282;-81
2021/07/11 02:00:00;;;;;;;7.57;5.13;;;;;;;18.88;100.00;96200.50;5015186;28;20719;-80
2021/07/11 02:02:27;;;;;;;5.20;4.80;;;;;;;18.83;100.00;96208.28;5015517;28;20564;-80
2021/07/11 02:04:55;;;;;;;5.37;4.87;;;;;;;18.84;100.00;96193.94;5015116;28;20235;-80
2021/07/11 02:07:22;;;;;;;5.03;4.53;;;;;;;18.71;100.00;96184.19;5015665;28;20631;-80
2021/07/11 02:09:49;;;;;;;5.23;4.73;;;;;;;18.55;100.00;96160.66;5015001;28;20250;-80
2021/07/11 02:12:17;;;;;;;5.70;4.90;;;;;;;18.66;100.00;96181.28;5014774;28;20215;-80
2021/07/11 02:14:49;;;;;;;5.00;4.47;;;;;;;18.69;100.00;96180.88;5015192;28;20180;-80
2021/07/11 02:17:21;;;;;;;6.27;4.27;;;;;;;18.57;100.00;96155.94;5015085;28;20184;-79
2021/07/11 02:19:49;;;;;;;6.93;5.00;;;;;;;18.34;100.00;96142.31;5015275;28;20277;-80
2021/07/11 02:22:17;;;;;;;5.57;4.67;;;;;;;18.10;100.00;96131.34;5014724;28;20673;-80
2021/07/11 02:24:48;;;;;;;5.20;4.77;;;;;;;17.93;100.00;96111.53;5014929;28;20235;-80
2021/07/11 02:27:15;;;;;;;6.10;5.00;;;;;;;18.07;100.00;96105.16;5014897;28;20187;-79
2021/07/11 02:29:44;;;;;;;5.20;4.70;;;;;;;18.03;100.00;96117.25;5014731;28;20199;-80
2021/07/11 02:32:15;;;;;;;5.07;4.57;;;;;;;18.16;100.00;96121.72;5013978;28;20582;-81
2021/07/11 02:34:45;;;;;;;5.53;4.40;;;;;;;18.13;100.00;96128.25;5015131;28;20291;-79
2021/07/11 02:37:16;;;;;;;5.17;4.77;;;;;;;18.11;100.00;96119.66;5014801;28;20184;-79
2021/07/11 02:39:45;;;;;;;4.60;4.20;;;;;;;18.15;100.00;96120.06;5014159;28;20692;-79
2021/07/11 02:42:14;;;;;;;4.97;4.57;;;;;;;18.15;100.00;96134.22;5014994;28;20204;-79
2021/07/11 02:44:47;;;;;;;4.37;3.97;;;;;;;18.23;100.00;96133.16;5014543;28;20252;-79
2021/07/11 02:47:18;;;;;;;4.73;4.33;;;;;;;18.08;100.00;96114.78;5014364;28;20234;-78
2021/07/11 02:49:50;;;;;;;5.40;4.93;;;;;;;17.76;100.00;96101.34;5014365;28;20188;-79
2021/07/11 02:52:21;;;;;;;7.07;5.23;;;;;;;17.64;100.00;96091.53;5014349;28;20243;-79
2021/07/11 02:54:56;;;;;;;5.23;4.80;;;;;;;17.13;100.00;96079.72;5014386;28;20192;-79
2021/07/11 02:57:27;;;;;;;5.47;4.80;;;;;;;16.85;100.00;96040.09;5014052;28;20286;-78
2021/07/11 02:59:55;;;;;;;30.43;7.60;;;;;;;17.15;100.00;96032.53;5014163;28;20294;-81
2021/07/11 03:02:25;;;;;;;11.07;5.13;;;;;;;17.25;100.00;96035.59;5014475;28;20222;-81
2021/07/11 03:04:55;;;;;;;6.23;5.07;;;;;;;17.46;100.00;96055.81;5014249;28;20675;-80
2021/07/11 03:07:22;;;;;;;5.30;4.90;;;;;;;17.48;100.00;96047.59;5014074;28;20197;-79
2021/07/11 03:09:50;;;;;;;8.70;5.30;;;;;;;17.52;100.00;96040.84;5014103;28;20203;-79
2021/07/11 03:12:19;;;;;;;5.50;5.00;;;;;;;17.67;100.00;96053.94;5013718;28;20203;-78
2021/07/11 03:14:50;;;;;;;5.60;5.00;;;;;;;17.57;100.00;96059.66;5014004;28;20188;-78
2021/07/11 03:17:23;;;;;;;5.73;4.93;;;;;;;17.33;100.00;96045.19;5013525;28;20282;-78
2021/07/11 03:19:54;;;;;;;4.97;4.57;;;;;;;17.29;100.00;96034.16;5014118;28;20314;-78
2021/07/11 03:22:24;;;;;;;8.13;5.40;;;;;;;17.39;100.00;96007.19;5014203;28;20198;-80
2021/07/11 03:24:55;;;;;;;6.73;6.03;;;;;;;17.38;100.00;96018.00;5013648;28;20278;-80
2021/07/11 03:27:23;;;;;;;9.80;5.57;;;;;;;17.51;100.00;96015.31;5013677;28;20184;-80
2021/07/11 03:30:01;;;;;;;5.57;5.07;;;;;;;17.40;100.00;96000.81;5013254;28;20196;-80
2021/07/11 03:32:32;;;;;;;5.27;4.77;;;;;;;17.21;100.00;96039.66;5013566;28;20194;-80
2021/07/11 03:35:02;;;;;;;11.83;5.97;;;;;;;17.31;100.00;96049.88;5013408;28;20710;-80
2021/07/11 03:37:31;;;;;;;5.30;4.80;;;;;;;17.69;100.00;96107.66;5013903;28;20183;-80
2021/07/11 03:40:00;;;;;;;5.63;5.00;;;;;;;17.93;100.00;96140.78;5013193;28;20778;-80
2021/07/11 03:42:32;;;;;;;5.47;4.97;;;;;;;18.23;100.00;96165.88;5013352;28;20703;-80
2021/07/11 03:45:00;;;;;;;6.87;5.23;;;;;;;18.39;100.00;96172.59;5013349;28;20220;-80
2021/07/11 03:47:35;;;;;;;5.30;4.73;;;;;;;18.50;100.00;96193.25;5013362;28;20199;-80
2021/07/11 03:50:06;;;;;;;4.77;4.37;;;;;;;18.57;100.00;96182.56;5013161;28;20278;-80
2021/07/11 03:52:42;;;;;;;7.63;4.90;;;;;;;18.63;100.00;96184.38;5013772;28;20261;-80
2021/07/11 03:55:11;;;;;;;9.07;4.60;;;;;;;18.66;100.00;96181.28;5013389;28;20187;-80
2021/07/11 03:57:39;;;;;;;4.50;4.20;;;;;;;18.63;100.00;96151.59;5013674;28;20191;-80
2021/07/11 04:00:07;;;;;;;6.07;5.47;;;;;;;18.41;100.00;96125.31;5012881;28;20612;-79
2021/07/11 04:02:36;;;;;;;4.87;4.43;;;;;;;18.49;100.00;96114.41;5013380;28;20207;-79
2021/07/11 04:05:06;;;;;;;6.00;5.20;;;;;;;18.40;100.00;96096.25;5012838;28;20202;-80
2021/07/11 04:07:37;;;;;;;5.40;5.00;;;;;;;18.29;100.00;96127.00;5013303;28;20210;-79
2021/07/11 04:10:06;;;;;;;5.70;5.20;;;;;;;18.04;100.00;96097.59;5012300;28;20291;-80
2021/07/11 04:12:34;;;;;;;8.40;4.90;;;;;;;17.93;100.00;96080.44;5012674;28;20235;-79
2021/07/11 04:15:01;;;;;;;5.40;4.47;;;;;;;18.14;100.00;96060.72;5012719;28;20187;-80
2021/07/11 04:17:32;;;;;;;5.77;5.20;;;;;;;18.28;100.00;96051.66;5012987;28;20246;-80
2021/07/11 04:20:01;;;;;;;6.17;5.47;;;;;;;18.37;100.00;96062.91;5012279;28;20227;-80
2021/07/11 04:22:32;;;;;;;10.50;5.20;;;;;;;18.41;100.00;96049.97;5012859;28;20250;-80
2021/07/11 04:25:01;;;;;;;5.77;5.23;;;;;;;18.36;100.00;96031.16;5012540;28;20318;-80
2021/07/11 04:27:30;;;;;;;5.03;4.57;;;;;;;18.48;100.00;96038.25;5012479;28;20694;-79
2021/07/11 04:29:58;;;;;;;8.40;5.30;;;;;;;18.48;100.00;96040.94;5011964;28;20394;-79
2021/07/11 04:32:25;;;;;;;5.77;5.27;;;;;;;18.43;100.00;96063.91;5012579;28;20203;-80
2021/07/11 04:34:53;;;;;;;5.40;5.00;;;;;;;18.29;100.00;96063.16;5012323;28;20661;-80
2021/07/11 04:37:20;;;;;;;5.40;4.90;;;;;;;18.22;100.00;96055.19;5012314;28;20286;-80
2021/07/11 04:39:49;;;;;;;5.17;4.67;;;;;;;18.33;100.00;96066.19;5012039;28;20295;-80
2021/07/11 04:42:17;;;;;;;5.53;5.00;;;;;;;18.53;100.00;96093.50;5012253;28;20290;-80
2021/07/11 04:44:45;;;;;;;10.43;5.07;;;;;;;18.69;100.00;96122.28;5011791;28;20196;-80
2021/07/11 04:47:13;;;;;;;5.57;4.73;;;;;;;18.86;100.00;96156.44;5011603;28;20204;-80
2021/07/11 04:49:40;;;;;;;5.13;4.63;;;;;;;18.98;100.00;96176.03;5012016;28;20203;-80
2021/07/11 04:52:09;;;;;;;6.90;4.13;;;;;;;19.08;100.00;96179.06;5012353;28;20199;-80
2021/07/11 04:54:36;;;;;;;5.17;4.67;;;;;;;19.32;100.00;96201.44;5011466;28;20200;-80
2021/07/11 04:57:06;;;;;;;5.00;4.50;;;;;;;19.46;100.00;96215.50;5011973;28;20673;-80
2021/07/11 04:59:33;;;;;;;8.73;4.53;;;;;;;19.57;100.00;96217.50;5011985;28;20223;-80
2021/07/11 05:02:00;;;;;;;6.03;4.93;;;;;;;19.68;100.00;96222.16;5012292;28;20243;-80
2021/07/11 05:04:28;;;;;;;6.47;4.23;;;;;;;19.75;100.00;96226.63;5009228;28;20208;-80
2021/07/11 05:06:56;;;;;;;4.50;3.93;;;;;;;19.86;100.00;96233.91;5012017;28;20207;-80
2021/07/11 05:09:23;;;;;;;4.37;3.97;;;;;;;19.92;100.00;96241.06;5011759;28;20204;-80
2021/07/11 05:11:50;;;;;;;4.83;4.37;;;;;;;19.98;100.00;96247.34;5011757;28;20191;-79
2021/07/11 05:14:19;;;;;;;6.60;4.03;;;;;;;20.10;100.00;96240.28;5011315;28;20237;-79
2021/07/11 05:16:46;;;;;;;6.07;4.63;;;;;;;20.18;100.00;96227.47;5011950;28;20195;-80
2021/07/11 05:19:14;;;;;;;5.13;4.70;;;;;;;20.27;100.00;96240.53;5011128;28;20257;-79
2021/07/11 05:21:41;;;;;;;6.87;4.40;;;;;;;20.41;100.00;96240.19;5011853;28;20269;-79
2021/07/11 05:24:08;;;;;;;5.77;4.30;;;;;;;20.56;100.00;96244.38;5011543;28;20204;-79
2021/07/11 05:26:36;;;;;;;6.77;4.00;;;;;;;20.66;100.00;96213.44;4992429;28;20212;-79
2021/07/11 05:29:03;;;;;;;4.80;4.40;;;;;;;20.80;100.00;96227.44;4992051;28;20204;-80
2021/07/11 05:31:32;;;;;;;7.67;5.40;;;;;;;21.02;100.00;96224.31;4992487;28;20287;-80
2021/07/11 05:33:59;;;;;;;4.77;4.30;;;;;;;21.20;100.00;96229.63;4992010;28;20204;-79
2021/07/11 05:36:27;;;;;;;5.20;4.23;;;;;;;21.27;100.00;96234.88;4990971;28;20247;-80
2021/07/11 05:38:55;;;;;;;5.07;4.57;;;;;;;21.45;100.00;96226.84;4990660;28;20251;-79
2021/07/11 05:41:22;;;;;;;5.60;4.10;;;;;;;21.66;100.00;96228.16;4992184;28;20224;-79
2021/07/11 05:43:49;;;;;;;4.83;4.33;;;;;;;21.83;100.00;96222.97;4992361;28;20196;-79
2021/07/11 05:46:16;;;;;;;4.73;4.27;;;;;;;21.95;100.00;96237.16;4992281;28;20243;-80
2021/07/11 05:48:45;;;;;;;4.93;4.43;;;;;;;22.09;100.00;96243.91;4991750;28;20732;-80
2021/07/11 05:51:13;;;;;;;6.10;5.03;;;;;;;22.18;100.00;96241.75;4992479;28;20197;-80
2021/07/11 05:53:40;;;;;;;5.50;4.77;;;;;;;22.28;100.00;96246.53;4992466;28;20633;-80
2021/07/11 05:56:07;;;;;;;5.40;4.90;;;;;;;22.35;100.00;96247.25;4992094;28;20200;-80
2021/07/11 05:58:35;;;;;;;5.23;4.77;;;;;;;22.46;100.00;96245.59;4992057;28;20231;-80
2021/07/11 06:01:02;;;;;;;6.23;4.50;;;;;;;22.59;100.00;96253.41;4992042;28;20272;-79
2021/07/11 06:03:29;;;;;;;6.50;4.80;;;;;;;22.79;100.00;96247.63;4991999;28;20243;-80
2021/07/11 06:05:58;;;;;;;4.80;4.30;;;;;;;22.80;100.00;96257.31;4992216;28;20208;-80
2021/07/11 06:08:26;;;;;;;7.80;4.33;;;;;;;22.84;100.00;96250.44;4994538;28;20251;-80
2021/07/11 06:10:55;;;;;;;6.00;4.50;;;;;;;23.08;100.00;96261.13;4995904;28;20192;-80
2021/07/11 06:13:22;;;;;;;4.90;4.50;;;;;;;23.38;100.00;96263.56;4995257;28;20277;-79
2021/07/11 06:15:50;;;;;;;13.80;6.07;;;;;;;23.68;100.00;96268.72;4995911;28;20278;-80
2021/07/11 06:18:18;;;;;;;6.00;3.97;;;;;;;23.82;100.00;96269.22;4995570;28;20255;-80
2021/07/11 06:20:46;;;;;;;4.60;4.20;;;;;;;24.03;100.00;96279.25;4995762;28;20668;-80
2021/07/11 06:23:14;;;;;;;6.77;4.33;;;;;;;24.13;100.00;96275.91;4995243;28;20239;-80
2021/07/11 06:25:42;;;;;;;9.57;4.97;;;;;;;24.27;100.00;96279.91;4995352;28;20287;-80
2021/07/11 06:28:09;;;;;;;4.93;4.40;;;;;;;24.34;100.00;96291.28;4995136;28;20208;-80
2021/07/11 06:30:36;;;;;;;7.67;4.33;;;;;;;24.50;100.00;96283.50;4995230;28;20736;-80
2021/07/11 06:33:04;;;;;;;5.70;4.37;;;;;;;24.66;100.00;96282.66;4995033;28;20279;-80
2021/07/11 06:35:32;;;;;;;5.47;4.43;;;;;;;24.73;100.00;96288.69;4995370;28;20196;-81
2021/07/11 06:38:00;;;;;;;9.00;4.80;;;;;;;24.85;100.00;96289.38;4995225;28;20200;-81
2021/07/11 06:40:29;;;;;;;4.67;4.27;;;;;;;24.97;100.00;96291.13;4995030;28;20263;-81
2021/07/11 06:42:56;;;;;;;4.87;4.50;;;;;;;25.18;100.00;96293.03;4994695;28;20701;-80
2021/07/11 06:45:23;;;;;;;4.53;4.00;;;;;;;25.32;100.00;96302.38;4995277;28;20200;-80
2021/07/11 06:47:51;;;;;;;6.87;4.27;;;;;;;25.52;100.00;96295.59;4994997;28;20231;-80
2021/07/11 06:50:18;;;;;;;7.03;4.40;;;;;;;25.53;100.00;96298.03;4994925;28;20239;-80
2021/07/11 06:52:48;;;;;;;7.50;4.17;;;;;;;25.66;100.00;96296.81;4994683;28;20196;-81
2021/07/11 06:55:16;;;;;;;6.10;4.57;;;;;;;25.62;100.00;96306.47;4994780;28;20200;-80
2021/07/11 06:57:45;;;;;;;4.67;4.23;;;;;;;25.68;100.00;96316.22;4994694;28;20577;-81
2021/07/11 07:00:15;;;;;;;4.87;4.47;;;;;;;25.87;100.00;96316.72;4994686;28;20200;-81
2021/07/11 07:02:43;;;;;;;7.80;4.43;;;;;;;25.88;100.00;96317.53;4994665;28;20270;-81
2021/07/11 07:05:11;;;;;;;4.70;4.17;;;;;;;25.93;100.00;96317.56;4994320;28;20670;-81
2021/07/11 07:07:39;;;;;;;4.27;3.87;;;;;;;25.96;100.00;96325.16;4994495;28;20204;-81
2021/07/11 07:10:13;;;;;;;5.37;4.20;;;;;;;26.03;100.00;96325.75;4994325;28;20200;-81
2021/07/11 07:12:41;;;;;;;5.47;4.93;;;;;;;26.34;100.00;96326.84;4994390;28;20729;-81
2021/07/11 07:15:12;;;;;;;4.30;4.00;;;;;;;26.43;100.00;96325.31;4994401;28;20197;-81
2021/07/11 07:17:40;;;;;;;7.45;4.15;;;;;;;26.29;100.00;96316.00;4994320;28;20637;-80
2021/07/11 07:20:09;;;;;;;4.55;3.97;;;;;;;26.34;100.00;96318.75;4994667;28;20264;-81
2021/07/11 07:22:37;;;;;;;10.27;5.15;;;;;;;26.83;100.00;96317.78;5012241;28;20231;-81
2021/07/11 07:25:04;;;;;;;5.05;4.55;;;;;;;27.21;100.00;96317.47;5011936;28;20203;-81
2021/07/11 07:27:32;;;;;;;7.43;4.50;;;;;;;27.30;100.00;96316.97;5012258;28;20241;-81
2021/07/11 07:29:59;;;;;;;4.68;4.28;;;;;;;27.26;100.00;96331.00;5011857;28;20230;-80
2021/07/11 07:32:28;;;;;;;4.75;4.32;;;;;;;27.42;100.00;96328.34;5011659;28;20700;-81
2021/07/11 07:34:55;;;;;;;6.10;4.38;;;;;;;27.59;100.00;96320.03;5011617;28;20644;-80
2021/07/11 07:37:22;;;;;;;5.63;4.15;;;;;;;27.49;100.00;96326.22;5011280;28;20239;-81
2021/07/11 07:39:50;;;;;;;4.55;4.07;;;;;;;27.59;100.00;96323.53;5011484;28;20230;-80
2021/07/11 07:42:17;;;;;;;6.32;3.90;;;;;;;27.42;100.00;96322.94;5011781;28;20777;-81
2021/07/11 07:44:45;;;;;;;6.88;4.43;;;;;;;27.27;100.00;96329.91;5013665;28;20605;-81
2021/07/11 07:47:12;;;;;;;5.10;4.22;;;;;;;27.71;100.00;96329.53;5010703;28;20597;-81
2021/07/11 07:49:41;;;;;;;4.53;4.15;;;;;;;27.87;100.00;96335.78;5012671;28;20203;-82
2021/07/11 07:52:08;;;;;;;10.05;4.75;;;;;;;27.91;100.00;96338.78;5013364;28;20787;-83
2021/07/11 07:54:38;;;;;;;4.60;4.20;;;;;;;28.20;100.00;96334.50;5012545;28;20290;-82
2021/07/11 07:57:05;;;;;;;5.40;4.50;;;;;;;28.38;100.00;96344.00;5012938;28;20199;-83
2021/07/11 07:59:32;;;;;;;5.43;4.38;;;;;;;28.50;100.00;96348.31;5011512;28;20680;-83
2021/07/11 08:02:00;;;;;;;6.25;4.13;;;;;;;28.43;100.00;96340.47;5012856;28;20293;-81
2021/07/11 08:04:27;;;;;;;7.43;4.50;;;;;;;28.26;100.00;96337.19;5012342;28;20200;-81
2021/07/11 08:06:56;;;;;;;5.28;4.78;;;;;;;28.34;100.00;96342.88;5012650;28;20250;-81
2021/07/11 08:09:24;;;;;;;6.78;4.72;;;;;;;27.87;100.00;96333.09;5012586;28;20290;-82
2021/07/11 08:11:51;;;;;;;8.20;5.20;;;;;;;28.36;100.00;96338.00;5012373;28;20233;-81
2021/07/11 08:14:18;;;;;;;4.57;4.28;;;;;;;28.46;100.00;96344.53;5012447;28;20326;-81
2021/07/11 08:16:46;;;;;;;5.05;4.63;;;;;;;28.57;100.00;96338.84;5012693;28;20199;-81
2021/07/11 08:19:13;;;;;;;5.55;4.90;;;;;;;28.90;100.00;96347.47;5012808;28;20321;-81
2021/07/11 08:21:41;;;;;;;8.35;4.72;;;;;;;28.80;100.00;96344.78;5012450;28;20219;-81
2021/07/11 08:24:09;;;;;;;5.55;5.00;;;;;;;28.69;100.00;96346.69;5012056;28;20209;-81
2021/07/11 08:26:37;;;;;;;6.43;4.63;;;;;;;28.91;100.00;96346.38;5012286;28;20199;-81
2021/07/11 08:29:04;;;;;;;8.40;4.70;;;;;;;28.70;100.00;96350.22;5012039;28;20231;-81
2021/07/11 08:31:31;;;;;;;11.43;4.90;;;;;;;28.74;100.00;96349.38;5011368;28;20199;-81
2021/07/11 08:33:58;;;;;;;6.18;4.65;;;;;;;29.13;100.00;96346.09;5011781;28;20200;-81
2021/07/11 08:36:27;;;;;;;8.48;5.38;;;;;;;29.47;100.00;96342.72;5012300;28;20199;-81
2021/07/11 08:38:54;;;;;;;4.88;4.45;;;;;;;29.49;100.00;96354.91;5012222;28;20200;-81
2021/07/11 08:41:24;;;;;;;8.13;5.38;;;;;;;29.58;100.00;96361.38;5012010;28;20258;-81
2021/07/11 08:43:52;;;;;;;6.28;4.97;;;;;;;29.88;100.00;96365.03;5012060;28;20190;-81
2021/07/11 08:46:20;;;;;;;7.70;5.05;;;;;;;29.69;100.00;96369.50;5012588;28;20592;-81
2021/07/11 08:48:48;;;;;;;5.60;5.05;;;;;;;29.89;100.00;96363.94;5012032;28;20254;-81
2021/07/11 08:51:17;;;;;;;6.45;5.72;;;;;;;30.09;100.00;96377.38;5012104;28;20289;-80
2021/07/11 08:53:46;;;;;;;5.68;5.18;;;;;;;30.05;100.00;96368.19;5012010;28;20203;-80
2021/07/11 08:56:17;;;;;;;6.60;5.95;;;;;;;29.95;100.00;96362.81;5012465;28;20249;-81
2021/07/11 08:58:51;;;;;;;5.65;5.13;;;;;;;30.15;100.00;96363.81;5012021;28;20194;-80
2021/07/11 09:01:20;;;;;;;6.15;5.57;;;;;;;30.26;100.00;96362.66;5012135;28;20199;-80
2021/07/11 09:04:02;;;;;;;5.82;5.10;;;;;;;30.41;100.00;96359.84;5012171;28;20660;-81
2021/07/11 09:06:44;;;;;;;6.10;5.55;;;;;;;30.03;100.00;96356.00;5012145;28;20274;-81
2021/07/11 09:09:12;;;;;;;5.75;5.13;;;;;;;30.06;100.00;96366.28;5008866;28;20723;-83
2021/07/11 09:11:46;;;;;;;6.50;5.85;;;;;;;30.18;100.00;96353.25;5011913;28;20643;-83
2021/07/11 09:14:19;;;;;;;5.75;5.22;;;;;;;30.33;100.00;96352.31;5011523;28;20274;-81
2021/07/11 09:16:47;;;;;;;5.65;5.13;;;;;;;30.06;100.00;96348.13;5011980;28;20680;-81
2021/07/11 09:19:25;;;;;;;5.55;5.05;;;;;;;30.33;100.00;96339.56;5012254;28;20603;-81
2021/07/11 09:21:55;;;;;;;10.40;6.82;;;;;;;30.58;100.00;96350.50;5012186;28;20261;-81
2021/07/11 09:24:23;;;;;;;5.63;4.63;;;;;;;30.68;100.00;96353.13;5011886;28;20203;-81
2021/07/11 09:26:51;;;;;;;6.35;5.75;;;;;;;30.41;100.00;96351.69;5011818;28;20200;-81
2021/07/11 09:29:32;;;;;;;6.15;5.57;;;;;;;29.53;100.00;96350.56;5011934;28;20207;-81
2021/07/11 09:31:59;;;;;;;6.72;5.32;;;;;;;29.22;100.00;96349.06;5011890;28;20187;-81
2021/07/11 09:34:30;;;;;;;6.53;5.93;;;;;;;29.05;100.00;96352.88;5012035;28;20195;-81
2021/07/11 09:37:09;;;;;;;5.78;5.28;;;;;;;28.96;100.00;96346.38;5012128;28;20287;-81
2021/07/11 09:39:37;;;;;;;6.80;5.88;;;;;;;28.99;100.00;96343.13;5012098;28;20206;-81
2021/07/11 09:42:06;;;;;;;5.28;4.82;;;;;;;28.73;100.00;96341.56;5013714;28;20674;-81
2021/07/11 09:44:42;;;;;;;5.95;5.45;;;;;;;29.34;100.00;96342.25;5015798;28;20199;-81
2021/07/11 09:47:18;;;;;;;5.53;5.10;;;;;;;29.89;100.00;96350.41;5015672;28;20191;-81
2021/07/11 09:49:45;;;;;;;6.20;5.60;;;;;;;30.40;100.00;96352.78;5015327;28;20322;-81
2021/07/11 09:52:13;;;;;;;7.65;5.85;;;;;;;30.49;100.00;96345.69;5015562;28;20214;-81
2021/07/11 09:54:41;;;;;;;5.57;4.93;;;;;;;30.38;100.00;96346.88;5015305;28;20231;-81
2021/07/11 09:57:10;;;;;;;6.15;5.55;;;;;;;29.85;100.00;96330.38;5015218;28;20200;-81
2021/07/11 09:59:37;;;;;;;7.20;5.70;;;;;;;29.56;100.00;96328.34;5014858;28;20211;-82
2021/07/11 10:02:06;;;;;;;5.88;5.38;;;;;;;29.25;100.00;96324.13;5015342;28;20223;-81
2021/07/11 10:04:34;;;;;;;5.95;5.45;;;;;;;28.98;100.00;96324.47;5014994;28;20669;-81
2021/07/11 10:07:02;;;;;;;5.57;5.05;;;;;;;29.04;100.00;96326.91;5015016;28;20262;-81
2021/07/11 10:09:29;;;;;;;6.75;5.30;;;;;;;28.94;100.00;96332.31;5015005;28;20203;-81
2021/07/11 10:11:56;;;;;;;6.28;5.28;;;;;;;29.03;100.00;96338.81;5015110;28;20218;-81
2021/07/11 10:14:24;;;;;;;5.97;5.47;;;;;;;28.74;100.00;96335.84;5014652;28;20289;-81
2021/07/11 10:16:51;;;;;;;8.02;5.90;;;;;;;28.57;100.00;96330.72;5014941;28;20203;-82
2021/07/11 10:19:20;;;;;;;7.03;6.32;;;;;;;28.42;100.00;96317.22;5013628;28;20261;-81
2021/07/11 10:21:49;;;;;;;5.80;5.22;;;;;;;28.44;100.00;96329.41;5014234;28;20218;-81
2021/07/11 10:24:23;;;;;;;6.90;5.93;;;;;;;28.58;100.00;96332.38;5013707;28;20206;-81
2021/07/11 10:26:51;;;;;;;6.68;6.05;;;;;;;28.60;100.00;96323.97;5014275;28;20184;-81
2021/07/11 10:29:21;;;;;;;6.78;6.18;;;;;;;29.23;100.00;96320.88;5013379;28;20265;-81
2021/07/11 10:31:50;;;;;;;6.57;5.93;;;;;;;29.76;100.00;96307.69;5013558;28;20286;-81
2021/07/11 10:34:33;;;;;;;6.55;5.82;;;;;;;29.68;100.00;96321.81;5013462;28;20200;-81
2021/07/11 10:37:14;;;;;;;5.78;5.28;;;;;;;29.15;100.00;96322.28;5013479;28;20645;-81
2021/07/11 10:39:42;;;;;;;7.72;6.93;;;;;;;29.71;100.00;96315.84;5013110;28;20198;-81
2021/07/11 10:42:10;;;;;;;6.40;5.80;;;;;;;30.11;100.00;96311.25;5013372;28;20227;-81
2021/07/11 10:44:39;;;;;;;6.60;5.63;;;;;;;30.10;100.00;96310.41;5012810;28;20294;-82
2021/07/11 10:47:06;;;;;;;9.68;6.05;;;;;;;29.94;100.00;96319.75;5013308;28;20265;-81
2021/07/11 10:49:36;;;;;;;6.65;5.50;;;;;;;30.07;100.00;96311.00;5012951;28;20291;-81
2021/07/11 10:52:05;;;;;;;7.60;5.93;;;;;;;30.18;100.00;96312.56;5013290;28;20203;-81
2021/07/11 10:54:35;;;;;;;7.47;5.65;;;;;;;30.21;100.00;96320.16;5012258;28;20195;-82
2021/07/11 10:57:05;;;;;;;7.30;6.70;;;;;;;30.42;100.00;96312.66;5013193;28;20200;-81
2021/07/11 10:59:34;;;;;;;8.07;6.07;;;;;;;29.91;100.00;96314.91;5012411;28;20204;-81
2021/07/11 11:02:04;;;;;;;6.55;5.80;;;;;;;29.42;100.00;96311.06;5012911;28;20261;-81
2021/07/11 11:04:32;;;;;;;5.57;5.03;;;;;;;29.31;100.00;96309.50;5012872;28;20227;-82
2021/07/11 11:07:13;;;;;;;6.80;6.20;;;;;;;29.42;100.00;96294.84;5013055;28;20203;-81
2021/07/11 11:09:43;;;;;;;7.75;5.55;;;;;;;29.10;100.00;96289.84;5012817;28;20192;-81
2021/07/11 11:12:24;;;;;;;7.72;6.20;;;;;;;29.02;100.00;96303.91;5012361;28;20203;-81
2021/07/11 11:14:57;;;;;;;7.85;6.63;;;;;;;28.82;100.00;96285.78;5012886;28;20231;-81
2021/07/11 11:17:32;;;;;;;14.40;7.10;;;;;;;28.87;100.00;96293.91;5012638;28;20723;-81
2021/07/11 11:20:00;;;;;;;6.72;6.07;;;;;;;28.65;100.00;96292.34;5012679;28;20278;-81
2021/07/11 11:22:29;;;;;;;8.15;6.35;;;;;;;28.63;100.00;96291.78;5012726;28;20743;-81
2021/07/11 11:24:58;;;;;;;6.60;6.05;;;;;;;28.81;100.00;96281.47;5012311;28;20199;-81
2021/07/11 11:27:37;;;;;;;6.72;6.22;;;;;;;28.86;100.00;96281.47;5012417;28;20199;-81
2021/07/11 11:30:11;;;;;;;13.40;6.03;;;;;;;29.17;100.00;96273.28;5012421;28;20667;-81
2021/07/11 11:32:39;;;;;;;7.05;6.45;;;;;;;29.06;100.00;96275.22;5012433;28;20675;-81